Time;durP1;ratioP1;P1;durP2;ratioP2;P2;SDS_P1;SDS_P2;PMS_P1;PMS_P2;Temp;Humidity;BMP_temperature;BMP_pressure;BME280_temperature;BME280_humidity;BME280_pressure;Samples;Min_cycle;Max_cycle;Signal;HPM_P1;HPM_P2
2021/05/08 00:00:07;;;;;;;9.98;9.08;;;;;;;12.93;99.91;98761.22;1705260;83;21184;-74
2021/05/08 00:02:34;;;;;;;11.05;9.85;;;;;;;12.95;99.89;98765.23;1730603;82;21184;-73
2021/05/08 00:05:04;;;;;;;9.25;8.23;;;;;;;12.96;99.54;98764.14;1730728;82;21534;-73
2021/05/08 00:07:32;;;;;;;9.15;8.35;;;;;;;12.94;99.34;98760.14;1730542;82;21128;-75
2021/05/08 00:10:01;;;;;;;12.33;11.05;;;;;;;12.94;99.17;98762.30;1730661;82;21144;-74
2021/05/08 00:12:30;;;;;;;13.40;10.90;;;;;;;12.98;99.09;98753.88;1730526;82;21050;-74
2021/05/08 00:14:58;;;;;;;12.13;11.03;;;;;;;12.99;98.83;98741.99;1730685;82;21208;-74
2021/05/08 00:17:26;;;;;;;10.95;9.38;;;;;;;13.02;98.87;98725.20;1705388;82;22103;-75
2021/05/08 00:19:54;;;;;;;9.83;8.88;;;;;;;13.04;98.58;98733.80;1705485;82;21585;-74
2021/05/08 00:22:22;;;;;;;12.30;9.48;;;;;;;13.01;98.35;98738.44;1730602;82;20978;-75
2021/05/08 00:24:51;;;;;;;10.98;8.60;;;;;;;13.01;98.30;98743.03;1730635;82;21164;-74
2021/05/08 00:27:19;;;;;;;10.43;9.43;;;;;;;13.00;98.10;98742.23;1730523;82;21148;-75
2021/05/08 00:29:47;;;;;;;12.23;9.70;;;;;;;12.97;97.64;98736.61;1705556;82;22154;-75
2021/05/08 00:32:15;;;;;;;10.95;9.85;;;;;;;12.88;97.34;98727.00;1730549;82;21581;-76
2021/05/08 00:34:44;;;;;;;11.15;9.58;;;;;;;12.84;97.47;98726.52;1706050;82;20942;-75
2021/05/08 00:37:12;;;;;;;9.53;8.63;;;;;;;12.80;97.48;98725.49;1705430;82;21025;-76
2021/05/08 00:39:41;;;;;;;11.43;8.45;;;;;;;12.78;97.54;98723.61;1730594;82;21144;-76
2021/05/08 00:42:10;;;;;;;8.60;7.80;;;;;;;12.75;97.69;98726.36;1730624;82;22293;-76
2021/05/08 00:44:39;;;;;;;11.95;8.33;;;;;;;12.73;97.57;98729.06;1705420;82;21195;-75
2021/05/08 00:47:07;;;;;;;8.68;7.75;;;;;;;12.68;97.45;98728.58;1730633;82;21235;-76
2021/05/08 00:49:35;;;;;;;8.60;6.97;;;;;;;12.63;97.34;98725.94;1730646;82;21199;-75
2021/05/08 00:52:06;;;;;;;8.33;7.28;;;;;;;12.56;97.39;98720.91;1730661;82;21106;-75
2021/05/08 00:54:33;;;;;;;11.38;7.55;;;;;;;12.51;97.56;98725.00;1705506;82;21081;-76
2021/05/08 00:57:03;;;;;;;8.60;7.80;;;;;;;12.48;97.64;98723.39;1730560;82;21159;-75
2021/05/08 00:59:31;;;;;;;9.88;7.30;;;;;;;12.43;97.78;98724.80;1730293;82;21140;-76
2021/05/08 01:02:00;;;;;;;9.85;7.75;;;;;;;12.40;97.97;98716.75;1705264;84;21163;-76
2021/05/08 01:04:28;;;;;;;8.98;7.40;;;;;;;12.37;98.10;98720.56;1651419;84;21110;-76
2021/05/08 01:06:56;;;;;;;9.48;7.60;;;;;;;12.36;98.22;98709.52;1705198;84;22230;-76
2021/05/08 01:09:25;;;;;;;6.65;6.05;;;;;;;12.36;98.22;98700.88;1705093;84;21208;-77
2021/05/08 01:11:54;;;;;;;9.10;7.53;;;;;;;12.39;98.36;98703.54;1705134;84;21133;-77
2021/05/08 01:14:23;;;;;;;8.15;7.10;;;;;;;12.40;98.50;98697.87;1705072;84;21153;-77
2021/05/08 01:16:51;;;;;;;8.65;7.75;;;;;;;12.45;98.30;98701.86;1679409;84;21137;-77
2021/05/08 01:19:20;;;;;;;9.83;7.53;;;;;;;12.43;98.07;98696.48;1705106;84;22227;-77
2021/05/08 01:21:48;;;;;;;6.85;6.10;;;;;;;12.46;98.30;98691.34;1705141;84;21152;-75
2021/05/08 01:24:16;;;;;;;7.87;7.17;;;;;;;12.49;98.16;98696.70;1705162;84;21120;-75
2021/05/08 01:26:44;;;;;;;7.28;6.58;;;;;;;12.46;97.90;98707.52;1701113;83;21168;-75
2021/05/08 01:29:12;;;;;;;8.93;6.70;;;;;;;12.54;98.30;98718.22;1656305;84;21148;-75
2021/05/08 01:31:40;;;;;;;8.65;7.78;;;;;;;12.57;98.12;98714.94;1678688;84;21197;-76
2021/05/08 01:34:08;;;;;;;8.95;6.85;;;;;;;12.54;97.90;98710.94;1678687;84;21622;-77
2021/05/08 01:36:37;;;;;;;8.28;7.15;;;;;;;12.52;97.77;98721.73;1705243;84;21145;-77
2021/05/08 01:39:06;;;;;;;11.03;8.95;;;;;;;12.50;97.81;98732.83;1705183;84;21604;-77
2021/05/08 01:41:35;;;;;;;9.60;7.17;;;;;;;12.59;98.10;98732.45;1678711;84;21180;-77
2021/05/08 01:44:08;;;;;;;7.90;7.10;;;;;;;12.66;97.91;98736.95;1705250;84;21180;-79
2021/05/08 01:46:36;;;;;;;10.63;8.48;;;;;;;12.76;97.81;98729.86;1678729;84;21640;-78
2021/05/08 01:49:05;;;;;;;8.83;7.92;;;;;;;12.80;97.30;98719.55;1705214;84;21617;-76
2021/05/08 01:51:33;;;;;;;8.48;7.60;;;;;;;12.83;97.01;98721.66;1705216;84;21139;-77
2021/05/08 01:54:02;;;;;;;10.80;7.78;;;;;;;12.85;96.66;98722.73;1678751;84;21648;-76
2021/05/08 01:56:30;;;;;;;8.83;7.55;;;;;;;12.85;96.28;98711.94;1705186;84;22494;-77
2021/05/08 01:59:02;;;;;;;9.63;8.60;;;;;;;12.79;95.87;98707.15;1705109;84;21152;-77
2021/05/08 02:01:32;;;;;;;10.25;9.03;;;;;;;12.76;95.83;98715.02;1705097;83;21646;-78
2021/05/08 02:04:01;;;;;;;7.50;6.87;;;;;;;12.75;95.83;98708.02;1705210;84;21596;-77
2021/05/08 02:06:29;;;;;;;11.63;8.60;;;;;;;12.76;95.75;98723.12;1705111;84;21144;-77
2021/05/08 02:09:07;;;;;;;10.93;8.80;;;;;;;12.78;95.71;98719.02;1874321;75;22788;-78
2021/05/08 02:11:39;;;;;;;8.70;7.90;;;;;;;12.72;95.73;98728.27;1818855;78;21129;-78
2021/05/08 02:14:07;;;;;;;11.55;8.88;;;;;;;12.68;95.62;98719.14;1819264;78;22216;-77
2021/05/08 02:16:36;;;;;;;9.48;8.50;;;;;;;12.67;95.87;98712.13;1761921;78;21586;-77
2021/05/08 02:19:05;;;;;;;10.32;9.30;;;;;;;12.67;95.95;98722.38;1819065;78;21027;-77
2021/05/08 02:21:35;;;;;;;10.00;8.95;;;;;;;12.75;96.16;98729.59;1819283;78;20963;-77
2021/05/08 02:24:05;;;;;;;9.08;8.03;;;;;;;12.81;96.31;98725.72;1819384;78;21578;-78
2021/05/08 02:26:34;;;;;;;10.82;9.85;;;;;;;12.83;95.96;98720.31;1785852;78;22247;-77
2021/05/08 02:29:02;;;;;;;11.50;9.28;;;;;;;12.79;95.79;98727.38;1819236;78;21015;-76
2021/05/08 02:31:32;;;;;;;12.15;10.98;;;;;;;12.79;96.05;98730.08;1819212;78;20991;-77
2021/05/08 02:34:03;;;;;;;11.80;10.35;;;;;;;12.88;96.30;98731.05;1819297;78;20955;-77
2021/05/08 02:36:33;;;;;;;10.85;9.75;;;;;;;12.91;95.89;98739.10;1819222;78;21087;-77
2021/05/08 02:39:02;;;;;;;12.15;10.72;;;;;;;12.87;95.45;98739.42;1819156;78;22719;-77
2021/05/08 02:41:29;;;;;;;13.15;11.55;;;;;;;12.79;95.34;98731.43;1756192;80;21189;-78
2021/05/08 02:43:57;;;;;;;15.98;12.00;;;;;;;12.72;95.36;98737.70;1754784;80;20999;-78
2021/05/08 02:46:24;;;;;;;11.78;10.20;;;;;;;12.67;95.57;98727.77;1754826;80;21821;-79
2021/05/08 02:48:54;;;;;;;12.00;10.78;;;;;;;12.66;95.88;98732.12;1787058;80;21520;-78
2021/05/08 02:51:22;;;;;;;10.90;9.83;;;;;;;12.65;95.97;98739.41;1787042;80;22193;-78
2021/05/08 02:53:50;;;;;;;10.00;9.00;;;;;;;12.61;95.92;98726.21;1786937;80;21562;-77
2021/05/08 02:56:19;;;;;;;11.33;9.95;;;;;;;12.56;96.18;98728.19;1786854;80;21165;-77
2021/05/08 02:58:48;;;;;;;10.55;9.13;;;;;;;12.51;96.27;98730.94;1786970;80;21562;-77
2021/05/08 03:01:16;;;;;;;9.68;8.70;;;;;;;12.48;96.36;98730.95;1787008;80;21165;-77
2021/05/08 03:03:46;;;;;;;10.38;9.23;;;;;;;12.43;96.43;98720.75;1786943;80;21196;-77
2021/05/08 03:06:14;;;;;;;14.35;9.80;;;;;;;12.41;96.76;98721.59;1786920;80;21487;-78
2021/05/08 03:08:44;;;;;;;10.75;9.15;;;;;;;12.42;97.01;98722.64;1752406;80;20998;-79
2021/05/08 03:11:13;;;;;;;10.40;9.30;;;;;;;12.49;97.20;98727.70;1753418;80;21177;-76
2021/05/08 03:13:45;;;;;;;10.03;8.70;;;;;;;12.53;97.36;98719.30;1779765;80;20979;-78
2021/05/08 03:16:13;;;;;;;9.85;8.55;;;;;;;12.54;97.07;98726.30;1779793;80;22177;-77
2021/05/08 03:18:42;;;;;;;11.88;8.95;;;;;;;12.49;97.00;98729.05;1779633;80;21109;-77
2021/05/08 03:21:10;;;;;;;9.90;8.93;;;;;;;12.45;97.13;98726.13;1779266;80;21184;-78
2021/05/08 03:23:39;;;;;;;9.35;8.48;;;;;;;12.44;97.36;98706.98;1779220;80;21152;-77
2021/05/08 03:26:06;;;;;;;9.65;8.40;;;;;;;12.41;97.37;98691.94;1751665;80;21110;-77
2021/05/08 03:28:35;;;;;;;10.53;9.53;;;;;;;12.39;97.59;98676.58;1779106;80;21130;-77
2021/05/08 03:31:03;;;;;;;9.18;8.28;;;;;;;12.34;97.79;98686.87;1779081;80;21161;-78
2021/05/08 03:33:32;;;;;;;10.68;9.58;;;;;;;12.35;98.05;98706.02;1779057;80;20975;-78
2021/05/08 03:36:00;;;;;;;9.28;8.35;;;;;;;12.34;98.17;98716.53;1753455;80;21140;-78
2021/05/08 03:38:28;;;;;;;9.50;8.60;;;;;;;12.36;98.33;98720.30;1751636;80;21157;-79
2021/05/08 03:40:57;;;;;;;7.87;7.08;;;;;;;12.39;98.55;98729.16;1779347;80;21271;-79
2021/05/08 03:43:25;;;;;;;10.28;9.25;;;;;;;12.41;98.53;98731.03;1779140;80;21105;-78
2021/05/08 03:45:52;;;;;;;10.95;8.20;;;;;;;12.40;98.38;98726.72;1751534;80;21173;-78
2021/05/08 03:48:20;;;;;;;10.43;8.50;;;;;;;12.43;98.39;98725.60;1779090;80;21141;-77
2021/05/08 03:50:49;;;;;;;10.05;8.20;;;;;;;12.46;98.33;98718.85;1779204;80;21125;-76
2021/05/08 03:53:17;;;;;;;8.93;7.20;;;;;;;12.50;98.37;98709.09;1779123;80;22447;-76
2021/05/08 03:55:44;;;;;;;8.90;8.10;;;;;;;12.59;98.45;98708.18;1779112;80;21116;-76
2021/05/08 03:58:13;;;;;;;9.63;8.58;;;;;;;12.65;98.13;98712.98;1736734;81;24779;-76
2021/05/08 04:00:41;;;;;;;7.78;7.08;;;;;;;12.71;97.83;98709.69;1757349;81;21575;-76
2021/05/08 04:03:09;;;;;;;8.40;7.60;;;;;;;12.74;97.47;98710.45;1731596;81;21157;-76
2021/05/08 04:05:37;;;;;;;8.88;7.90;;;;;;;12.70;96.98;98708.88;1757300;81;22399;-76
2021/05/08 04:08:06;;;;;;;8.78;7.90;;;;;;;12.67;96.88;98713.48;1746071;81;21137;-77
2021/05/08 04:10:34;;;;;;;8.13;7.33;;;;;;;12.67;96.83;98715.63;1723876;82;21178;-78
2021/05/08 04:13:02;;;;;;;9.65;8.03;;;;;;;12.70;96.85;98709.42;1709330;83;21134;-78
2021/05/08 04:15:31;;;;;;;9.60;8.60;;;;;;;12.76;96.90;98708.28;1725106;83;21174;-77
2021/05/08 04:17:59;;;;;;;8.30;7.37;;;;;;;12.81;96.72;98717.09;1725992;82;21254;-80
2021/05/08 04:20:27;;;;;;;9.63;8.23;;;;;;;12.89;96.49;98727.81;1726264;82;21484;-80
2021/05/08 04:22:56;;;;;;;7.58;6.95;;;;;;;12.89;96.21;98725.92;1725270;82;21243;-80
2021/05/08 04:25:23;;;;;;;7.62;6.92;;;;;;;12.90;95.93;98724.80;1724462;82;21564;-78
2021/05/08 04:27:51;;;;;;;8.08;7.28;;;;;;;12.88;95.61;98734.30;1709518;83;21142;-80
2021/05/08 04:30:20;;;;;;;6.95;6.28;;;;;;;12.89;95.69;98729.97;1724140;83;22149;-78
2021/05/08 04:32:48;;;;;;;8.75;7.85;;;;;;;12.91;95.50;98726.95;1724196;83;20952;-78
2021/05/08 04:35:17;;;;;;;10.63;9.35;;;;;;;12.92;95.36;98723.17;1709494;83;21067;-81
2021/05/08 04:37:45;;;;;;;10.32;8.80;;;;;;;12.95;95.29;98716.64;1724010;83;21122;-77
2021/05/08 04:40:13;;;;;;;9.00;8.20;;;;;;;12.98;95.01;98724.19;1724092;81;21138;-78
2021/05/08 04:42:42;;;;;;;8.50;7.28;;;;;;;12.98;94.80;98728.23;1723998;82;21138;-80
2021/05/08 04:45:10;;;;;;;7.72;7.00;;;;;;;12.95;94.59;98736.89;1709133;83;21178;-80
2021/05/08 04:47:38;;;;;;;10.35;8.80;;;;;;;12.92;94.50;98746.11;1724042;82;21153;-78
2021/05/08 04:50:06;;;;;;;9.10;8.20;;;;;;;12.88;94.61;98745.09;1724045;83;21611;-78
2021/05/08 04:52:34;;;;;;;9.28;8.38;;;;;;;12.93;95.01;98749.08;1724090;83;21194;-79
2021/05/08 04:55:01;;;;;;;8.45;7.62;;;;;;;12.93;94.75;98749.08;1724079;82;21206;-79
2021/05/08 04:57:30;;;;;;;9.80;7.85;;;;;;;12.91;94.78;98752.05;1724078;83;21154;-80
2021/05/08 04:59:58;;;;;;;11.18;7.03;;;;;;;12.87;94.77;98760.47;1724185;82;21210;-80
2021/05/08 05:02:26;;;;;;;7.97;6.75;;;;;;;12.80;94.75;98760.57;1724202;82;21563;-79
2021/05/08 05:04:54;;;;;;;7.58;6.65;;;;;;;12.75;94.73;98769.52;1710367;83;21154;-81
2021/05/08 05:07:23;;;;;;;7.55;6.75;;;;;;;12.74;94.87;98764.41;1725112;82;21414;-80
2021/05/08 05:09:52;;;;;;;8.23;7.35;;;;;;;12.73;94.71;98766.84;1726114;81;21185;-78
2021/05/08 05:12:20;;;;;;;9.75;8.75;;;;;;;12.70;94.86;98762.83;1755137;81;21142;-78
2021/05/08 05:14:48;;;;;;;9.20;7.87;;;;;;;12.69;95.01;98776.05;1755145;81;21125;-78
2021/05/08 05:17:15;;;;;;;7.97;6.70;;;;;;;12.67;94.96;98774.98;1754495;81;21590;-79
2021/05/08 05:19:43;;;;;;;8.23;6.53;;;;;;;12.69;95.15;98770.66;1754372;81;22201;-81
2021/05/08 05:22:11;;;;;;;10.03;7.20;;;;;;;12.67;94.85;98764.73;1726597;81;21177;-83
2021/05/08 05:24:39;;;;;;;7.53;6.15;;;;;;;12.64;94.90;98772.87;1726650;81;21165;-81
2021/05/08 05:27:06;;;;;;;8.00;7.20;;;;;;;12.59;94.90;98778.85;1754460;81;21058;-82
2021/05/08 05:29:34;;;;;;;7.62;6.70;;;;;;;12.57;94.86;98776.97;1754513;81;21121;-83
2021/05/08 05:32:01;;;;;;;7.90;7.10;;;;;;;12.52;94.97;98779.17;1754437;81;22232;-82
2021/05/08 05:34:29;;;;;;;6.95;6.30;;;;;;;12.53;95.07;98777.29;1726543;81;21169;-81
2021/05/08 05:36:57;;;;;;;7.90;6.78;;;;;;;12.53;95.20;98779.98;1754408;81;21122;-82
2021/05/08 05:39:25;;;;;;;7.92;6.80;;;;;;;12.52;94.97;98784.56;1754303;80;21639;-82
2021/05/08 05:41:53;;;;;;;6.78;6.08;;;;;;;12.49;94.58;98779.75;1754456;81;21634;-79
2021/05/08 05:44:20;;;;;;;7.12;6.53;;;;;;;12.45;94.21;98782.77;1726647;81;22136;-80
2021/05/08 05:46:49;;;;;;;10.80;6.40;;;;;;;12.42;93.88;98776.57;1754364;80;21606;-81
2021/05/08 05:49:17;;;;;;;10.30;7.45;;;;;;;12.43;93.68;98785.47;1754268;81;21050;-80
2021/05/08 05:51:45;;;;;;;8.80;6.87;;;;;;;12.45;93.48;98788.16;1726467;81;21042;-81
2021/05/08 05:54:13;;;;;;;6.87;5.92;;;;;;;12.48;93.24;98794.32;1754327;81;21126;-82
2021/05/08 05:56:41;;;;;;;6.87;6.25;;;;;;;12.44;92.69;98774.41;1754424;81;22256;-81
2021/05/08 05:59:09;;;;;;;6.53;5.80;;;;;;;12.43;92.81;98778.19;1754259;81;21473;-81
2021/05/08 06:01:37;;;;;;;10.48;7.28;;;;;;;12.44;92.62;98777.64;1754491;81;21546;-82
2021/05/08 06:04:06;;;;;;;8.90;5.45;;;;;;;12.44;91.54;98780.34;1754351;81;21153;-80
2021/05/08 06:06:34;;;;;;;6.65;5.00;;;;;;;12.41;90.60;98782.27;1702850;81;21197;-83
2021/05/08 06:09:02;;;;;;;5.42;4.92;;;;;;;12.41;90.00;98789.02;1718199;83;21181;-83
2021/05/08 06:11:30;;;;;;;4.70;4.30;;;;;;;12.39;89.68;98785.24;1697441;84;21169;-83
2021/05/08 06:14:00;;;;;;;4.65;4.10;;;;;;;12.42;90.11;98792.75;1691402;84;21609;-85
2021/05/08 06:16:28;;;;;;;4.37;3.98;;;;;;;12.41;89.50;98789.81;1667239;84;21153;-83
2021/05/08 06:18:56;;;;;;;6.47;5.05;;;;;;;12.42;89.15;98808.93;1691301;84;21177;-83
2021/05/08 06:21:24;;;;;;;8.00;4.95;;;;;;;12.39;88.64;98791.98;1691326;84;21792;-83
2021/05/08 06:23:53;;;;;;;4.83;4.42;;;;;;;12.38;88.91;98793.06;1667276;84;21083;-82
2021/05/08 06:26:23;;;;;;;5.00;4.50;;;;;;;12.41;89.26;98806.00;1667214;84;21210;-82
2021/05/08 06:28:53;;;;;;;5.62;4.65;;;;;;;12.44;89.36;98795.17;1644967;84;21166;-79
2021/05/08 06:31:21;;;;;;;5.35;4.12;;;;;;;12.46;89.20;98793.82;1667306;84;21173;-80
2021/05/08 06:33:51;;;;;;;3.87;3.58;;;;;;;12.45;88.44;98788.70;1646503;84;22657;-81
2021/05/08 06:36:22;;;;;;;4.25;3.85;;;;;;;12.40;88.18;98796.83;1646821;84;21146;-81
2021/05/08 06:38:51;;;;;;;10.23;4.42;;;;;;;12.37;87.95;98796.06;1691295;84;21571;-81
2021/05/08 06:41:19;;;;;;;4.28;3.87;;;;;;;12.30;88.05;98793.69;1691175;84;21259;-80
2021/05/08 06:43:47;;;;;;;3.80;3.30;;;;;;;12.32;88.54;98797.45;1621310;84;21622;-80
2021/05/08 06:46:16;;;;;;;3.55;3.25;;;;;;;12.31;88.29;98802.58;1667186;84;21177;-80
2021/05/08 06:48:45;;;;;;;7.20;3.05;;;;;;;12.26;88.05;98820.14;1691098;84;21208;-79
2021/05/08 06:51:13;;;;;;;3.20;2.77;;;;;;;12.17;87.74;98800.53;1645534;84;21165;-78
2021/05/08 06:53:41;;;;;;;4.40;3.10;;;;;;;12.08;87.55;98818.41;1667340;84;21216;-79
2021/05/08 06:56:10;;;;;;;7.00;3.83;;;;;;;12.00;87.55;98813.59;1691484;84;21157;-79
2021/05/08 06:58:41;;;;;;;6.50;3.05;;;;;;;11.96;87.81;98813.89;1691426;84;21176;-78
2021/05/08 07:01:09;;;;;;;2.95;2.67;;;;;;;11.92;88.17;98824.16;1691355;84;21578;-79
2021/05/08 07:03:40;;;;;;;4.87;2.92;;;;;;;11.86;88.19;98832.81;1691377;84;21237;-80
2021/05/08 07:06:09;;;;;;;4.05;3.33;;;;;;;11.76;87.84;98828.83;1668033;84;21547;-77
2021/05/08 07:08:37;;;;;;;3.15;2.75;;;;;;;11.70;88.09;98831.28;1692946;83;21303;-77
2021/05/08 07:11:11;;;;;;;3.90;3.00;;;;;;;11.62;88.55;98844.77;1684262;84;22264;-78
2021/05/08 07:13:39;;;;;;;3.45;2.55;;;;;;;11.56;88.92;98849.91;1702456;84;21148;-79
2021/05/08 07:16:10;;;;;;;3.30;3.08;;;;;;;11.51;89.51;98847.80;1702734;83;21112;-78
2021/05/08 07:18:38;;;;;;;2.77;2.50;;;;;;;11.48;89.85;98845.11;1702600;84;21642;-78
2021/05/08 07:21:12;;;;;;;3.20;2.87;;;;;;;11.44;90.20;98853.47;1625640;87;21193;-78
2021/05/08 07:23:46;;;;;;;3.80;2.75;;;;;;;11.37;90.25;98862.38;1674199;85;21103;-80
2021/05/08 07:26:20;;;;;;;3.20;2.90;;;;;;;11.29;90.50;98866.98;1610575;85;21166;-78
2021/05/08 07:28:50;;;;;;;4.30;3.60;;;;;;;11.23;90.56;98858.66;1630781;85;21249;-77
2021/05/08 07:31:20;;;;;;;3.30;3.00;;;;;;;11.20;90.92;98875.37;1676082;85;21213;-77
2021/05/08 07:33:47;;;;;;;3.72;3.42;;;;;;;11.13;91.07;98871.61;1676076;85;21178;-77
2021/05/08 07:36:15;;;;;;;5.42;3.02;;;;;;;11.06;91.44;98871.64;1630847;85;21759;-79
2021/05/08 07:38:43;;;;;;;3.47;3.17;;;;;;;11.00;91.63;98874.06;1675961;85;21153;-79
2021/05/08 07:41:11;;;;;;;3.77;3.47;;;;;;;10.98;91.98;98883.77;1652135;85;21213;-77
2021/05/08 07:43:39;;;;;;;4.37;3.72;;;;;;;10.98;92.57;98903.14;1653623;82;21177;-86
2021/05/08 07:46:06;;;;;;;3.67;3.37;;;;;;;10.92;93.42;98904.49;1703518;84;21571;-83
2021/05/08 07:48:34;;;;;;;4.28;3.92;;;;;;;10.82;93.57;98924.67;1679334;84;21225;-82
2021/05/08 07:51:05;;;;;;;4.28;3.72;;;;;;;10.71;93.85;98912.83;1680554;84;21638;-85
2021/05/08 07:53:33;;;;;;;2.95;2.75;;;;;;;10.58;94.66;98935.70;1704771;84;21166;-83
2021/05/08 07:56:05;;;;;;;3.27;2.98;;;;;;;10.50;95.40;98932.98;1681110;84;21599;-88
2021/05/08 07:58:32;;;;;;;3.65;3.25;;;;;;;10.42;95.79;98933.52;1680083;84;21194;-80
2021/05/08 08:01:01;;;;;;;4.83;3.25;;;;;;;10.32;95.89;98962.27;1680603;84;22207;-79
2021/05/08 08:03:30;;;;;;;3.35;3.00;;;;;;;10.21;95.82;98943.98;1680775;84;21635;-87
2021/05/08 08:05:57;;;;;;;4.50;3.47;;;;;;;10.14;96.37;98948.76;1680382;84;21184;-80
2021/05/08 08:08:30;;;;;;;3.85;2.83;;;;;;;10.07;96.73;98985.83;1680069;84;21155;-80
2021/05/08 08:10:58;;;;;;;3.92;3.60;;;;;;;9.93;96.31;98959.97;1683390;84;21174;-79
2021/05/08 08:13:26;;;;;;;4.15;3.77;;;;;;;9.81;96.08;98982.77;1694850;83;22182;-83
2021/05/08 08:15:55;;;;;;;3.77;3.47;;;;;;;9.68;95.83;98989.95;1695243;84;21052;-83
2021/05/08 08:18:26;;;;;;;4.65;3.92;;;;;;;9.56;96.10;98980.22;1668895;84;21181;-81
2021/05/08 08:20:54;;;;;;;6.40;4.20;;;;;;;9.46;95.66;99001.64;1693917;84;21189;-78
2021/05/08 08:23:22;;;;;;;5.00;3.92;;;;;;;9.38;95.88;98959.19;1681362;85;21166;-80
2021/05/08 08:25:50;;;;;;;4.80;4.35;;;;;;;9.28;95.61;99004.74;1624809;84;22434;-84
2021/05/08 08:28:18;;;;;;;5.33;4.83;;;;;;;9.22;95.60;98992.35;1694537;84;21232;-82
2021/05/08 08:30:46;;;;;;;4.87;4.45;;;;;;;9.17;95.42;99004.39;1681286;85;21544;-84
2021/05/08 08:33:14;;;;;;;4.70;4.10;;;;;;;9.11;95.01;98989.34;1657582;85;21660;-84
2021/05/08 08:35:42;;;;;;;4.05;3.75;;;;;;;9.08;95.10;98986.63;1681021;85;21201;-84
2021/05/08 08:38:10;;;;;;;4.33;3.92;;;;;;;9.06;95.35;98994.66;1694797;84;21742;-84
2021/05/08 08:40:39;;;;;;;4.72;4.33;;;;;;;9.05;95.54;99011.82;1732484;82;21181;-85
2021/05/08 08:43:09;;;;;;;4.50;4.10;;;;;;;9.02;94.90;99006.95;1733865;82;22395;-87
2021/05/08 08:45:36;;;;;;;4.72;4.28;;;;;;;9.05;95.49;98998.41;1733855;82;21093;-82
2021/05/08 08:48:05;;;;;;;5.08;4.30;;;;;;;9.05;95.57;98997.06;1734071;82;21194;-85
2021/05/08 08:50:37;;;;;;;7.33;4.00;;;;;;;9.07;95.75;99011.02;1733793;82;21266;-85
2021/05/08 08:53:05;;;;;;;5.08;4.37;;;;;;;9.06;95.58;99027.67;1734091;82;21173;-86
2021/05/08 08:55:33;;;;;;;5.00;3.00;;;;;;;9.02;94.02;99028.41;1724109;82;21148;-80
2021/05/08 08:58:05;;;;;;;4.28;3.33;;;;;;;8.98;92.74;99009.34;1677929;84;21139;-81
2021/05/08 09:00:33;;;;;;;2.87;2.67;;;;;;;8.96;92.55;99024.90;1704058;84;21192;-82
2021/05/08 09:03:03;;;;;;;5.67;3.37;;;;;;;8.92;91.73;99014.38;1677505;84;21207;-82
2021/05/08 09:05:31;;;;;;;3.33;3.02;;;;;;;8.84;90.23;99022.08;1654132;84;21209;-81
2021/05/08 09:08:08;;;;;;;3.83;3.00;;;;;;;8.81;91.01;99020.73;1677490;84;21203;-82
2021/05/08 09:10:36;;;;;;;3.55;3.25;;;;;;;8.77;90.33;99030.36;1704163;83;20997;-82
2021/05/08 09:13:05;;;;;;;2.70;2.50;;;;;;;8.73;90.22;99038.08;1704586;84;21224;-80
2021/05/08 09:15:39;;;;;;;3.02;2.83;;;;;;;8.73;90.45;99034.58;1704629;84;21029;-81
2021/05/08 09:18:10;;;;;;;2.95;2.75;;;;;;;8.67;90.12;99066.44;1704682;84;21453;-81
2021/05/08 09:20:46;;;;;;;3.35;3.05;;;;;;;8.65;90.32;99034.52;1680031;84;21227;-81
2021/05/08 09:23:22;;;;;;;2.75;2.40;;;;;;;8.63;90.24;99059.41;1679993;84;21195;-82
2021/05/08 09:26:07;;;;;;;2.55;2.35;;;;;;;8.59;90.19;99058.30;1680104;84;21667;-81
2021/05/08 09:28:37;;;;;;;2.47;2.25;;;;;;;8.54;90.07;99100.32;1704630;84;22396;-81
2021/05/08 09:31:13;;;;;;;2.30;2.10;;;;;;;8.49;90.87;99080.97;1656481;84;21175;-82
2021/05/08 09:33:42;;;;;;;2.65;2.33;;;;;;;8.48;91.41;99091.44;1704687;84;21537;-82
2021/05/08 09:36:11;;;;;;;2.65;2.45;;;;;;;8.44;91.18;99089.52;1679613;84;21194;-79
2021/05/08 09:38:41;;;;;;;3.10;2.77;;;;;;;8.41;92.03;99057.84;1680128;84;21632;-81
2021/05/08 09:41:12;;;;;;;2.50;2.30;;;;;;;8.41;92.81;99053.30;1704785;84;22127;-79
2021/05/08 09:43:42;;;;;;;3.20;2.77;;;;;;;8.45;93.46;99069.14;1704553;84;21233;-80
2021/05/08 09:46:28;;;;;;;3.17;2.77;;;;;;;8.47;93.30;99072.92;1680038;84;21422;-80
2021/05/08 09:49:14;;;;;;;2.65;2.40;;;;;;;8.46;93.57;99076.66;1661511;84;21205;-81
2021/05/08 09:51:44;;;;;;;4.22;2.45;;;;;;;8.43;93.25;99099.95;1704685;84;21147;-83
2021/05/08 09:54:16;;;;;;;2.72;2.52;;;;;;;8.41;93.64;99071.23;1680539;84;22946;-81
2021/05/08 09:56:46;;;;;;;3.47;3.17;;;;;;;8.43;93.96;99096.73;1704578;84;21017;-82
2021/05/08 09:59:36;;;;;;;2.92;2.62;;;;;;;8.44;94.07;99092.97;1680183;84;21096;-81
2021/05/08 10:02:11;;;;;;;2.90;2.70;;;;;;;8.43;93.62;99096.73;1704727;84;21592;-80
2021/05/08 10:04:57;;;;;;;3.33;3.02;;;;;;;8.42;93.70;99080.90;1705448;84;21203;-80
2021/05/08 10:07:27;;;;;;;3.50;3.20;;;;;;;8.46;94.14;99081.48;1707613;84;21045;-83
2021/05/08 10:09:58;;;;;;;4.42;4.03;;;;;;;8.52;94.07;99080.49;1707698;83;21576;-82
2021/05/08 10:12:32;;;;;;;3.65;2.80;;;;;;;8.57;94.05;99096.63;1706692;84;21112;-82
2021/05/08 10:15:06;;;;;;;2.70;2.50;;;;;;;8.60;93.42;99119.42;1705799;84;21189;-82
2021/05/08 10:17:34;;;;;;;2.83;2.62;;;;;;;8.64;93.22;99104.45;1704900;84;21163;-81
2021/05/08 10:20:10;;;;;;;5.70;3.27;;;;;;;8.67;93.20;99099.42;1681271;84;22183;-82
2021/05/08 10:22:58;;;;;;;3.55;3.25;;;;;;;8.73;93.11;99110.45;1705054;84;21203;-80
2021/05/08 10:25:26;;;;;;;4.50;3.25;;;;;;;8.80;93.33;99104.09;1680272;84;21215;-82
2021/05/08 10:27:54;;;;;;;3.08;2.60;;;;;;;8.83;92.77;99113.78;1704706;84;21163;-83
2021/05/08 10:30:42;;;;;;;2.77;2.58;;;;;;;8.85;91.98;99134.98;1704885;84;21147;-81
2021/05/08 10:33:13;;;;;;;4.05;3.67;;;;;;;8.88;91.02;99138.49;1705026;84;21291;-82
2021/05/08 10:35:44;;;;;;;2.92;2.72;;;;;;;8.89;90.82;99138.78;1680109;84;21207;-80
2021/05/08 10:38:27;;;;;;;2.85;2.10;;;;;;;8.91;90.16;99154.09;1705208;84;21171;-82
2021/05/08 10:41:02;;;;;;;2.55;2.35;;;;;;;8.90;89.22;99143.09;1704755;84;21186;-82
2021/05/08 10:46:24;;;;;;;4.37;2.55;;;;;;;8.94;88.52;99140.98;1874311;75;28168;-81
2021/05/08 10:49:13;;;;;;;2.72;2.50;;;;;;;8.89;88.35;99154.87;1819416;78;21603;-81
2021/05/08 10:52:01;;;;;;;2.52;2.30;;;;;;;8.91;88.72;99141.50;1819281;78;20991;-80
2021/05/08 10:54:44;;;;;;;3.35;2.55;;;;;;;8.94;87.59;99146.87;1787381;78;21184;-81
2021/05/08 10:57:24;;;;;;;1.70;1.60;;;;;;;8.97;86.93;99146.39;1819272;78;20972;-81
2021/05/08 11:00:08;;;;;;;1.65;1.55;;;;;;;8.97;85.73;99147.17;1787695;78;21023;-80
2021/05/08 11:02:48;;;;;;;1.75;1.65;;;;;;;8.97;85.31;99161.92;1819454;78;20916;-79
2021/05/08 11:05:30;;;;;;;4.62;2.30;;;;;;;8.96;85.71;99179.63;1785721;78;21331;-80
2021/05/08 11:07:58;;;;;;;1.80;1.70;;;;;;;8.91;85.90;99153.57;1819157;78;21003;-82
2021/05/08 11:10:37;;;;;;;2.45;1.87;;;;;;;8.90;87.28;99159.98;1819607;78;20987;-80
2021/05/08 11:13:14;;;;;;;2.77;1.55;;;;;;;8.89;87.85;99174.98;1786225;78;21046;-81
2021/05/08 11:16:03;;;;;;;1.67;1.57;;;;;;;8.80;85.28;99205.45;1819350;78;21126;-80
2021/05/08 11:18:40;;;;;;;1.20;1.10;;;;;;;8.78;83.97;99183.43;1818523;78;21768;-80
2021/05/08 11:21:21;;;;;;;2.22;1.70;;;;;;;8.81;84.31;99199.56;1819414;78;21548;-79
2021/05/08 11:24:02;;;;;;;1.65;1.52;;;;;;;8.84;84.34;99181.09;1819305;78;21657;-79
2021/05/08 11:26:34;;;;;;;10.88;1.55;;;;;;;8.89;84.43;99166.94;1819486;78;21094;-82
2021/05/08 11:29:18;;;;;;;1.70;1.60;;;;;;;8.96;84.94;99183.66;1788642;78;21165;-81
2021/05/08 11:31:56;;;;;;;1.85;1.40;;;;;;;8.97;84.56;99187.41;1780819;80;22194;-83
2021/05/08 11:34:27;;;;;;;1.52;1.42;;;;;;;8.95;84.05;99195.44;1819027;78;21160;-81
2021/05/08 11:37:03;;;;;;;1.62;1.10;;;;;;;8.89;85.15;99241.49;1787155;80;21155;-80
2021/05/08 11:39:44;;;;;;;1.02;1.00;;;;;;;8.71;85.25;99209.64;1728725;80;21121;-82
2021/05/08 11:42:20;;;;;;;1.12;1.02;;;;;;;8.53;86.45;99220.14;1787266;80;21110;-81
2021/05/08 11:45:00;;;;;;;1.52;1.40;;;;;;;8.37;86.48;99246.96;1757859;80;21377;-82
2021/05/08 11:47:34;;;;;;;4.42;1.07;;;;;;;8.24;87.40;99252.11;1758466;80;21152;-80
2021/05/08 11:50:13;;;;;;;0.93;0.93;;;;;;;8.18;88.50;99285.23;1757087;80;21076;-84